sensor_id;sensor_type;location;lat;lon;timestamp;temperature;humidity
66670;DHT22;53568;52.164;4.472;2022-12-29T00:01:37;11.97;83.57
66670;DHT22;53568;52.164;4.472;2022-12-29T00:04:03;12.05;83.29
66670;DHT22;53568;52.164;4.472;2022-12-29T00:06:29;12.14;82.82
66670;DHT22;53568;52.164;4.472;2022-12-29T00:08:55;12.08;82.75
66670;DHT22;53568;52.164;4.472;2022-12-29T00:11:23;12.12;82.43
66670;DHT22;53568;52.164;4.472;2022-12-29T00:13:49;12.15;82.28
66670;DHT22;53568;52.164;4.472;2022-12-29T00:16:35;12.15;81.92
66670;DHT22;53568;52.164;4.472;2022-12-29T00:19:00;12.21;81.54
66670;DHT22;53568;52.164;4.472;2022-12-29T00:21:27;12.24;81.46
66670;DHT22;53568;52.164;4.472;2022-12-29T00:24:21;12.33;80.66
66670;DHT22;53568;52.164;4.472;2022-12-29T00:29:47;12.32;80.57
66670;DHT22;53568;52.164;4.472;2022-12-29T00:32:31;12.29;80.50
66670;DHT22;53568;52.164;4.472;2022-12-29T00:35:23;12.35;80.18
66670;DHT22;53568;52.164;4.472;2022-12-29T00:37:50;12.38;79.93
66670;DHT22;53568;52.164;4.472;2022-12-29T00:40:34;12.35;79.87
66670;DHT22;53568;52.164;4.472;2022-12-29T00:43:18;12.42;79.55
66670;DHT22;53568;52.164;4.472;2022-12-29T00:46:03;12.42;79.69
66670;DHT22;53568;52.164;4.472;2022-12-29T00:48:28;12.41;79.98
66670;DHT22;53568;52.164;4.472;2022-12-29T00:51:12;12.33;80.29
66670;DHT22;53568;52.164;4.472;2022-12-29T00:53:38;12.32;80.46
66670;DHT22;53568;52.164;4.472;2022-12-29T00:56:03;12.38;80.20
66670;DHT22;53568;52.164;4.472;2022-12-29T00:58:30;12.41;80.09
66670;DHT22;53568;52.164;4.472;2022-12-29T01:01:03;12.33;80.45
66670;DHT22;53568;52.164;4.472;2022-12-29T01:03:29;12.28;80.74
66670;DHT22;53568;52.164;4.472;2022-12-29T01:05:54;12.25;80.64
66670;DHT22;53568;52.164;4.472;2022-12-29T01:08:20;12.20;80.95
66670;DHT22;53568;52.164;4.472;2022-12-29T01:10:45;12.24;81.13
66670;DHT22;53568;52.164;4.472;2022-12-29T01:13:11;12.21;80.74
66670;DHT22;53568;52.164;4.472;2022-12-29T01:15:36;12.21;80.69
66670;DHT22;53568;52.164;4.472;2022-12-29T01:18:02;12.17;81.08
66670;DHT22;53568;52.164;4.472;2022-12-29T01:20:28;12.12;81.17
66670;DHT22;53568;52.164;4.472;2022-12-29T01:22:54;12.18;81.14
66670;DHT22;53568;52.164;4.472;2022-12-29T01:25:20;12.18;81.24
66670;DHT22;53568;52.164;4.472;2022-12-29T01:27:45;12.15;81.85
66670;DHT22;53568;52.164;4.472;2022-12-29T01:30:11;12.20;82.29
66670;DHT22;53568;52.164;4.472;2022-12-29T01:32:37;12.20;82.48
66670;DHT22;53568;52.164;4.472;2022-12-29T01:35:03;12.20;82.35
66670;DHT22;53568;52.164;4.472;2022-12-29T01:37:29;12.18;82.06
66670;DHT22;53568;52.164;4.472;2022-12-29T01:39:54;12.21;81.49
66670;DHT22;53568;52.164;4.472;2022-12-29T01:42:24;12.14;81.22
66670;DHT22;53568;52.164;4.472;2022-12-29T01:45:02;12.17;80.98
66670;DHT22;53568;52.164;4.472;2022-12-29T01:47:33;12.14;80.93
66670;DHT22;53568;52.164;4.472;2022-12-29T01:52:37;12.22;80.04
66670;DHT22;53568;52.164;4.472;2022-12-29T01:55:05;12.15;80.21
66670;DHT22;53568;52.164;4.472;2022-12-29T01:57:37;12.20;79.95
66670;DHT22;53568;52.164;4.472;2022-12-29T02:00:10;12.12;79.91
66670;DHT22;53568;52.164;4.472;2022-12-29T02:02:36;12.06;79.40
66670;DHT22;53568;52.164;4.472;2022-12-29T02:05:49;12.21;79.23
66670;DHT22;53568;52.164;4.472;2022-12-29T02:08:12;12.22;78.75
66670;DHT22;53568;52.164;4.472;2022-12-29T02:10:40;12.22;78.45
66670;DHT22;53568;52.164;4.472;2022-12-29T02:13:06;12.31;77.70
66670;DHT22;53568;52.164;4.472;2022-12-29T02:32:58;12.20;77.87
66670;DHT22;53568;52.164;4.472;2022-12-29T02:35:47;12.11;77.69
66670;DHT22;53568;52.164;4.472;2022-12-29T02:38:44;12.08;78.45
66670;DHT22;53568;52.164;4.472;2022-12-29T02:41:25;11.94;78.79
66670;DHT22;53568;52.164;4.472;2022-12-29T02:44:03;11.77;79.13
66670;DHT22;53568;52.164;4.472;2022-12-29T02:46:36;11.81;79.25
66670;DHT22;53568;52.164;4.472;2022-12-29T02:49:10;11.68;79.49
66670;DHT22;53568;52.164;4.472;2022-12-29T02:52:03;11.50;79.50
66670;DHT22;53568;52.164;4.472;2022-12-29T02:54:31;11.67;79.38
66670;DHT22;53568;52.164;4.472;2022-12-29T02:57:31;11.70;79.15
66670;DHT22;53568;52.164;4.472;2022-12-29T03:00:17;11.70;79.12
66670;DHT22;53568;52.164;4.472;2022-12-29T03:11:12;11.67;79.05
66670;DHT22;53568;52.164;4.472;2022-12-29T03:14:24;11.74;78.60
66670;DHT22;53568;52.164;4.472;2022-12-29T03:19:52;11.73;77.94
66670;DHT22;53568;52.164;4.472;2022-12-29T03:22:28;11.73;77.27
66670;DHT22;53568;52.164;4.472;2022-12-29T03:25:24;11.77;77.20
66670;DHT22;53568;52.164;4.472;2022-12-29T03:27:57;11.74;77.47
66670;DHT22;53568;52.164;4.472;2022-12-29T03:30:28;11.64;78.41
66670;DHT22;53568;52.164;4.472;2022-12-29T03:32:58;11.73;78.25
66670;DHT22;53568;52.164;4.472;2022-12-29T03:35:29;11.78;78.19
66670;DHT22;53568;52.164;4.472;2022-12-29T03:37:59;11.70;78.17
66670;DHT22;53568;52.164;4.472;2022-12-29T03:40:29;11.74;77.91
66670;DHT22;53568;52.164;4.472;2022-12-29T03:42:58;11.81;77.67
66670;DHT22;53568;52.164;4.472;2022-12-29T03:45:24;11.85;77.32
66670;DHT22;53568;52.164;4.472;2022-12-29T03:47:51;11.78;77.39
66670;DHT22;53568;52.164;4.472;2022-12-29T03:50:17;11.80;77.38
66670;DHT22;53568;52.164;4.472;2022-12-29T03:52:42;11.78;77.14
66670;DHT22;53568;52.164;4.472;2022-12-29T03:55:08;11.81;77.09
66670;DHT22;53568;52.164;4.472;2022-12-29T03:57:34;11.87;76.58
66670;DHT22;53568;52.164;4.472;2022-12-29T03:59:59;11.81;76.71
66670;DHT22;53568;52.164;4.472;2022-12-29T04:02:25;11.73;76.99
66670;DHT22;53568;52.164;4.472;2022-12-29T04:04:50;11.81;76.66
66670;DHT22;53568;52.164;4.472;2022-12-29T04:07:16;11.73;76.00
66670;DHT22;53568;52.164;4.472;2022-12-29T04:09:41;11.77;75.86
66670;DHT22;53568;52.164;4.472;2022-12-29T04:12:07;11.77;75.81
66670;DHT22;53568;52.164;4.472;2022-12-29T04:14:32;11.74;75.75
66670;DHT22;53568;52.164;4.472;2022-12-29T04:16:58;11.68;75.59
66670;DHT22;53568;52.164;4.472;2022-12-29T04:19:23;11.66;75.52
66670;DHT22;53568;52.164;4.472;2022-12-29T04:21:49;11.68;75.36
66670;DHT22;53568;52.164;4.472;2022-12-29T04:24:14;11.73;74.80
66670;DHT22;53568;52.164;4.472;2022-12-29T04:26:40;11.75;74.05
66670;DHT22;53568;52.164;4.472;2022-12-29T04:29:06;11.77;74.07
66670;DHT22;53568;52.164;4.472;2022-12-29T04:31:32;11.64;74.32
66670;DHT22;53568;52.164;4.472;2022-12-29T04:33:57;11.67;74.44
66670;DHT22;53568;52.164;4.472;2022-12-29T04:36:23;11.61;74.63
66670;DHT22;53568;52.164;4.472;2022-12-29T04:38:49;11.63;74.95
66670;DHT22;53568;52.164;4.472;2022-12-29T04:41:14;11.61;75.07
66670;DHT22;53568;52.164;4.472;2022-12-29T04:43:40;11.73;74.91
66670;DHT22;53568;52.164;4.472;2022-12-29T04:46:06;11.70;74.90
66670;DHT22;53568;52.164;4.472;2022-12-29T04:48:31;11.70;74.91
66670;DHT22;53568;52.164;4.472;2022-12-29T04:50:57;11.58;75.39
66670;DHT22;53568;52.164;4.472;2022-12-29T04:53:22;11.56;75.89
66670;DHT22;53568;52.164;4.472;2022-12-29T04:55:49;11.54;76.24
66670;DHT22;53568;52.164;4.472;2022-12-29T04:58:15;11.61;75.97
66670;DHT22;53568;52.164;4.472;2022-12-29T05:00:40;11.51;76.58
66670;DHT22;53568;52.164;4.472;2022-12-29T05:03:06;11.46;76.95
66670;DHT22;53568;52.164;4.472;2022-12-29T05:05:31;11.37;77.14
66670;DHT22;53568;52.164;4.472;2022-12-29T05:07:57;11.53;76.89
66670;DHT22;53568;52.164;4.472;2022-12-29T05:10:22;11.50;76.57
66670;DHT22;53568;52.164;4.472;2022-12-29T05:12:48;11.54;76.26
66670;DHT22;53568;52.164;4.472;2022-12-29T05:15:13;11.53;76.23
66670;DHT22;53568;52.164;4.472;2022-12-29T05:17:39;11.50;76.49
66670;DHT22;53568;52.164;4.472;2022-12-29T05:20:05;11.41;76.80
66670;DHT22;53568;52.164;4.472;2022-12-29T05:22:31;11.33;77.16
66670;DHT22;53568;52.164;4.472;2022-12-29T05:24:57;11.36;77.14
66670;DHT22;53568;52.164;4.472;2022-12-29T05:27:22;11.34;77.13
66670;DHT22;53568;52.164;4.472;2022-12-29T05:29:48;11.31;77.10
66670;DHT22;53568;52.164;4.472;2022-12-29T05:32:13;11.19;77.62
66670;DHT22;53568;52.164;4.472;2022-12-29T05:34:39;11.27;77.49
66670;DHT22;53568;52.164;4.472;2022-12-29T05:37:05;11.27;77.64
66670;DHT22;53568;52.164;4.472;2022-12-29T05:39:30;11.31;77.52
66670;DHT22;53568;52.164;4.472;2022-12-29T05:41:56;11.28;77.44
66670;DHT22;53568;52.164;4.472;2022-12-29T05:44:21;11.36;77.46
66670;DHT22;53568;52.164;4.472;2022-12-29T05:46:47;11.38;77.32
66670;DHT22;53568;52.164;4.472;2022-12-29T05:49:12;11.36;77.37
66670;DHT22;53568;52.164;4.472;2022-12-29T05:51:38;11.37;77.24
66670;DHT22;53568;52.164;4.472;2022-12-29T05:54:03;11.40;77.08
66670;DHT22;53568;52.164;4.472;2022-12-29T05:56:29;11.34;77.16
66670;DHT22;53568;52.164;4.472;2022-12-29T05:58:54;11.38;77.38
66670;DHT22;53568;52.164;4.472;2022-12-29T06:01:20;11.38;77.18
66670;DHT22;53568;52.164;4.472;2022-12-29T06:03:45;11.41;76.95
66670;DHT22;53568;52.164;4.472;2022-12-29T06:06:11;11.31;76.79
66670;DHT22;53568;52.164;4.472;2022-12-29T06:08:36;11.44;76.52
66670;DHT22;53568;52.164;4.472;2022-12-29T06:11:02;11.47;76.32
66670;DHT22;53568;52.164;4.472;2022-12-29T06:13:27;11.44;76.21
66670;DHT22;53568;52.164;4.472;2022-12-29T06:15:53;11.48;76.00
66670;DHT22;53568;52.164;4.472;2022-12-29T06:18:18;11.40;76.07
66670;DHT22;53568;52.164;4.472;2022-12-29T06:20:44;11.46;75.48
66670;DHT22;53568;52.164;4.472;2022-12-29T06:23:09;11.26;76.04
66670;DHT22;53568;52.164;4.472;2022-12-29T06:25:37;11.33;75.84
66670;DHT22;53568;52.164;4.472;2022-12-29T06:28:03;11.31;75.63
66670;DHT22;53568;52.164;4.472;2022-12-29T06:30:31;11.31;75.70
66670;DHT22;53568;52.164;4.472;2022-12-29T06:32:58;11.22;75.98
66670;DHT22;53568;52.164;4.472;2022-12-29T06:35:23;11.22;75.68
66670;DHT22;53568;52.164;4.472;2022-12-29T06:37:49;11.22;75.45
66670;DHT22;53568;52.164;4.472;2022-12-29T06:40:15;11.17;74.88
66670;DHT22;53568;52.164;4.472;2022-12-29T06:42:41;11.23;74.82
66670;DHT22;53568;52.164;4.472;2022-12-29T06:45:07;11.27;74.40
66670;DHT22;53568;52.164;4.472;2022-12-29T06:47:33;11.31;74.14
66670;DHT22;53568;52.164;4.472;2022-12-29T06:49:59;11.24;74.02
66670;DHT22;53568;52.164;4.472;2022-12-29T06:52:25;11.27;73.90
66670;DHT22;53568;52.164;4.472;2022-12-29T06:54:50;11.23;73.84
66670;DHT22;53568;52.164;4.472;2022-12-29T06:57:16;11.19;73.73
66670;DHT22;53568;52.164;4.472;2022-12-29T06:59:41;11.24;73.83
66670;DHT22;53568;52.164;4.472;2022-12-29T07:02:10;11.26;73.97
66670;DHT22;53568;52.164;4.472;2022-12-29T07:04:35;11.24;73.90
66670;DHT22;53568;52.164;4.472;2022-12-29T07:07:01;11.31;73.58
66670;DHT22;53568;52.164;4.472;2022-12-29T07:09:27;11.28;73.70
66670;DHT22;53568;52.164;4.472;2022-12-29T07:11:52;11.34;73.61
66670;DHT22;53568;52.164;4.472;2022-12-29T07:14:18;11.36;73.48
66670;DHT22;53568;52.164;4.472;2022-12-29T07:16:43;11.40;73.24
66670;DHT22;53568;52.164;4.472;2022-12-29T07:19:09;11.40;73.20
66670;DHT22;53568;52.164;4.472;2022-12-29T07:21:35;11.20;73.74
66670;DHT22;53568;52.164;4.472;2022-12-29T07:24:01;11.20;73.82
66670;DHT22;53568;52.164;4.472;2022-12-29T07:26:26;11.33;73.56
66670;DHT22;53568;52.164;4.472;2022-12-29T07:28:52;11.36;73.62
66670;DHT22;53568;52.164;4.472;2022-12-29T07:31:20;11.40;73.27
66670;DHT22;53568;52.164;4.472;2022-12-29T07:33:47;11.27;73.75
66670;DHT22;53568;52.164;4.472;2022-12-29T07:36:13;11.27;73.71
66670;DHT22;53568;52.164;4.472;2022-12-29T07:38:39;11.24;73.83
66670;DHT22;53568;52.164;4.472;2022-12-29T07:41:05;11.30;74.02
66670;DHT22;53568;52.164;4.472;2022-12-29T07:43:30;11.26;74.03
66670;DHT22;53568;52.164;4.472;2022-12-29T07:45:56;11.17;74.44
66670;DHT22;53568;52.164;4.472;2022-12-29T07:48:22;11.28;74.54
66670;DHT22;53568;52.164;4.472;2022-12-29T07:50:48;11.34;74.37
66670;DHT22;53568;52.164;4.472;2022-12-29T07:53:15;11.34;74.87
66670;DHT22;53568;52.164;4.472;2022-12-29T07:55:41;11.28;75.79
66670;DHT22;53568;52.164;4.472;2022-12-29T07:58:06;11.24;76.36
66670;DHT22;53568;52.164;4.472;2022-12-29T08:00:32;11.02;77.03
66670;DHT22;53568;52.164;4.472;2022-12-29T08:02:58;10.90;77.83
66670;DHT22;53568;52.164;4.472;2022-12-29T08:05:24;10.86;78.30
66670;DHT22;53568;52.164;4.472;2022-12-29T08:07:49;10.86;78.27
66670;DHT22;53568;52.164;4.472;2022-12-29T08:10:16;10.84;78.48
66670;DHT22;53568;52.164;4.472;2022-12-29T08:12:42;10.82;78.23
66670;DHT22;53568;52.164;4.472;2022-12-29T08:15:10;10.70;78.63
66670;DHT22;53568;52.164;4.472;2022-12-29T08:17:36;10.79;78.47
66670;DHT22;53568;52.164;4.472;2022-12-29T08:20:03;10.80;78.59
66670;DHT22;53568;52.164;4.472;2022-12-29T08:22:29;10.83;78.30
66670;DHT22;53568;52.164;4.472;2022-12-29T08:24:54;10.79;78.43
66670;DHT22;53568;52.164;4.472;2022-12-29T08:27:20;10.90;78.49
66670;DHT22;53568;52.164;4.472;2022-12-29T08:29:45;10.95;78.63
66670;DHT22;53568;52.164;4.472;2022-12-29T08:32:11;10.79;79.28
66670;DHT22;53568;52.164;4.472;2022-12-29T08:34:37;10.70;79.58
66670;DHT22;53568;52.164;4.472;2022-12-29T08:37:02;10.70;79.85
66670;DHT22;53568;52.164;4.472;2022-12-29T08:39:28;10.59;80.29
66670;DHT22;53568;52.164;4.472;2022-12-29T08:41:54;10.60;80.56
66670;DHT22;53568;52.164;4.472;2022-12-29T08:44:20;10.59;80.44
66670;DHT22;53568;52.164;4.472;2022-12-29T08:46:46;10.66;80.23
66670;DHT22;53568;52.164;4.472;2022-12-29T08:49:12;10.62;80.61
66670;DHT22;53568;52.164;4.472;2022-12-29T08:51:37;10.70;80.69
66670;DHT22;53568;52.164;4.472;2022-12-29T08:54:03;10.70;80.94
66670;DHT22;53568;52.164;4.472;2022-12-29T08:56:28;10.80;80.89
66670;DHT22;53568;52.164;4.472;2022-12-29T08:58:54;10.83;80.94
66670;DHT22;53568;52.164;4.472;2022-12-29T09:01:20;10.86;81.03
66670;DHT22;53568;52.164;4.472;2022-12-29T09:03:46;10.89;81.17
66670;DHT22;53568;52.164;4.472;2022-12-29T09:06:13;10.89;81.18
66670;DHT22;53568;52.164;4.472;2022-12-29T09:08:39;10.82;81.53
66670;DHT22;53568;52.164;4.472;2022-12-29T09:11:13;10.76;82.04
66670;DHT22;53568;52.164;4.472;2022-12-29T09:13:40;10.75;82.24
66670;DHT22;53568;52.164;4.472;2022-12-29T09:16:06;10.76;82.30
66670;DHT22;53568;52.164;4.472;2022-12-29T09:18:31;10.86;82.14
66670;DHT22;53568;52.164;4.472;2022-12-29T09:20:58;10.93;82.08
66670;DHT22;53568;52.164;4.472;2022-12-29T09:23:24;10.90;82.11
66670;DHT22;53568;52.164;4.472;2022-12-29T09:25:49;10.89;82.17
66670;DHT22;53568;52.164;4.472;2022-12-29T09:28:15;10.86;82.05
66670;DHT22;53568;52.164;4.472;2022-12-29T09:30:41;10.93;81.95
66670;DHT22;53568;52.164;4.472;2022-12-29T09:33:07;11.02;82.00
66670;DHT22;53568;52.164;4.472;2022-12-29T09:35:32;10.99;82.03
66670;DHT22;53568;52.164;4.472;2022-12-29T09:37:58;11.06;81.78
66670;DHT22;53568;52.164;4.472;2022-12-29T09:40:27;11.12;81.80
66670;DHT22;53568;52.164;4.472;2022-12-29T09:43:02;11.10;81.73
66670;DHT22;53568;52.164;4.472;2022-12-29T09:48:17;11.16;81.09
66670;DHT22;53568;52.164;4.472;2022-12-29T09:50:48;11.22;81.00
66670;DHT22;53568;52.164;4.472;2022-12-29T09:53:27;11.26;80.88
66670;DHT22;53568;52.164;4.472;2022-12-29T09:55:57;11.27;80.70
66670;DHT22;53568;52.164;4.472;2022-12-29T10:01:05;11.24;80.42
66670;DHT22;53568;52.164;4.472;2022-12-29T10:03:52;11.24;79.97
66670;DHT22;53568;52.164;4.472;2022-12-29T10:09:29;11.24;79.88
66670;DHT22;53568;52.164;4.472;2022-12-29T10:20:23;11.37;78.30
66670;DHT22;53568;52.164;4.472;2022-12-29T10:26:01;11.51;77.73
66670;DHT22;53568;52.164;4.472;2022-12-29T10:31:35;11.66;77.08
66670;DHT22;53568;52.164;4.472;2022-12-29T10:34:14;11.61;76.50
66670;DHT22;53568;52.164;4.472;2022-12-29T10:36:45;11.68;76.15
66670;DHT22;53568;52.164;4.472;2022-12-29T10:41:53;11.81;75.40
66670;DHT22;53568;52.164;4.472;2022-12-29T10:44:20;11.78;74.89
66670;DHT22;53568;52.164;4.472;2022-12-29T10:46:59;11.78;74.46
66670;DHT22;53568;52.164;4.472;2022-12-29T10:49:28;11.75;74.13
66670;DHT22;53568;52.164;4.472;2022-12-29T10:51:59;11.71;74.10
66670;DHT22;53568;52.164;4.472;2022-12-29T10:59:53;11.75;74.05
66670;DHT22;53568;52.164;4.472;2022-12-29T11:02:23;11.77;74.04
66670;DHT22;53568;52.164;4.472;2022-12-29T11:05:06;11.73;73.83
66670;DHT22;53568;52.164;4.472;2022-12-29T11:07:35;11.70;73.27
66670;DHT22;53568;52.164;4.472;2022-12-29T11:10:38;11.73;73.09
66670;DHT22;53568;52.164;4.472;2022-12-29T11:13:24;11.61;72.54
66670;DHT22;53568;52.164;4.472;2022-12-29T11:15:51;11.67;72.71
66670;DHT22;53568;52.164;4.472;2022-12-29T11:18:37;11.70;72.66
66670;DHT22;53568;52.164;4.472;2022-12-29T11:21:06;11.73;72.89
66670;DHT22;53568;52.164;4.472;2022-12-29T11:24:05;11.68;73.38
66670;DHT22;53568;52.164;4.472;2022-12-29T11:26:32;11.77;73.23
66670;DHT22;53568;52.164;4.472;2022-12-29T11:31:44;12.01;71.62
66670;DHT22;53568;52.164;4.472;2022-12-29T11:34:20;12.10;71.43
66670;DHT22;53568;52.164;4.472;2022-12-29T11:36:48;12.15;70.95
66670;DHT22;53568;52.164;4.472;2022-12-29T11:39:29;12.20;69.91
66670;DHT22;53568;52.164;4.472;2022-12-29T11:42:00;12.14;69.59
66670;DHT22;53568;52.164;4.472;2022-12-29T11:44:34;12.20;69.02
66670;DHT22;53568;52.164;4.472;2022-12-29T11:47:01;12.18;69.00
66670;DHT22;53568;52.164;4.472;2022-12-29T11:49:27;12.20;69.39
66670;DHT22;53568;52.164;4.472;2022-12-29T11:51:54;12.05;69.72
66670;DHT22;53568;52.164;4.472;2022-12-29T11:54:27;12.10;69.86
66670;DHT22;53568;52.164;4.472;2022-12-29T11:56:54;11.92;70.51
66670;DHT22;53568;52.164;4.472;2022-12-29T11:59:36;11.97;70.45
66670;DHT22;53568;52.164;4.472;2022-12-29T12:04:38;11.99;69.39
66670;DHT22;53568;52.164;4.472;2022-12-29T12:09:45;11.85;68.94
66670;DHT22;53568;52.164;4.472;2022-12-29T12:12:24;11.91;68.88
66670;DHT22;53568;52.164;4.472;2022-12-29T12:14:56;11.87;68.88
66670;DHT22;53568;52.164;4.472;2022-12-29T12:17:29;11.95;68.70
66670;DHT22;53568;52.164;4.472;2022-12-29T12:20:31;11.95;68.34
66670;DHT22;53568;52.164;4.472;2022-12-29T12:26:02;12.10;68.72
66670;DHT22;53568;52.164;4.472;2022-12-29T12:29:28;12.14;68.98
66670;DHT22;53568;52.164;4.472;2022-12-29T12:31:46;12.01;69.68
66670;DHT22;53568;52.164;4.472;2022-12-29T12:34:27;11.98;70.06
66670;DHT22;53568;52.164;4.472;2022-12-29T12:37:06;11.98;70.19
66670;DHT22;53568;52.164;4.472;2022-12-29T12:53:41;11.82;70.31
66670;DHT22;53568;52.164;4.472;2022-12-29T12:57:15;11.73;70.62
66670;DHT22;53568;52.164;4.472;2022-12-29T13:02:15;11.75;70.89
66670;DHT22;53568;52.164;4.472;2022-12-29T13:18:44;11.81;71.07
66670;DHT22;53568;52.164;4.472;2022-12-29T13:21:41;11.90;70.94
66670;DHT22;53568;52.164;4.472;2022-12-29T13:24:49;11.91;70.95
66670;DHT22;53568;52.164;4.472;2022-12-29T13:30:03;11.84;70.80
66670;DHT22;53568;52.164;4.472;2022-12-29T13:32:35;11.75;71.43
66670;DHT22;53568;52.164;4.472;2022-12-29T13:35:11;11.87;71.48
66670;DHT22;53568;52.164;4.472;2022-12-29T13:37:55;11.90;71.55
66670;DHT22;53568;52.164;4.472;2022-12-29T13:40:32;11.84;72.15
66670;DHT22;53568;52.164;4.472;2022-12-29T13:43:01;11.80;72.31
66670;DHT22;53568;52.164;4.472;2022-12-29T13:45:31;11.85;72.50
66670;DHT22;53568;52.164;4.472;2022-12-29T13:48:15;11.84;72.87
66670;DHT22;53568;52.164;4.472;2022-12-29T13:50:51;11.73;73.50
66670;DHT22;53568;52.164;4.472;2022-12-29T13:56:15;11.68;73.47
66670;DHT22;53568;52.164;4.472;2022-12-29T14:04:57;11.71;73.24
66670;DHT22;53568;52.164;4.472;2022-12-29T14:07:24;11.64;73.26
66670;DHT22;53568;52.164;4.472;2022-12-29T14:09:57;11.70;73.24
66670;DHT22;53568;52.164;4.472;2022-12-29T14:15:14;11.67;73.81
66670;DHT22;53568;52.164;4.472;2022-12-29T14:17:41;11.70;73.92
66670;DHT22;53568;52.164;4.472;2022-12-29T14:20:27;11.57;74.58
66670;DHT22;53568;52.164;4.472;2022-12-29T14:25:56;11.58;75.05
66670;DHT22;53568;52.164;4.472;2022-12-29T14:28:33;11.50;75.38
66670;DHT22;53568;52.164;4.472;2022-12-29T14:31:01;11.48;75.57
66670;DHT22;53568;52.164;4.472;2022-12-29T14:33:29;11.43;75.80
66670;DHT22;53568;52.164;4.472;2022-12-29T14:35:57;11.37;75.88
66670;DHT22;53568;52.164;4.472;2022-12-29T14:38:46;11.43;75.75
66670;DHT22;53568;52.164;4.472;2022-12-29T14:41:24;11.50;75.82
66670;DHT22;53568;52.164;4.472;2022-12-29T14:44:18;11.47;75.86
66670;DHT22;53568;52.164;4.472;2022-12-29T14:49:22;11.41;75.89
66670;DHT22;53568;52.164;4.472;2022-12-29T14:52:03;11.43;75.77
66670;DHT22;53568;52.164;4.472;2022-12-29T14:57:02;11.47;75.93
66670;DHT22;53568;52.164;4.472;2022-12-29T14:59:32;11.41;75.86
66670;DHT22;53568;52.164;4.472;2022-12-29T15:02:03;11.31;75.91
66670;DHT22;53568;52.164;4.472;2022-12-29T15:04:35;11.40;75.30
66670;DHT22;53568;52.164;4.472;2022-12-29T15:07:07;11.36;75.35
66670;DHT22;53568;52.164;4.472;2022-12-29T15:09:51;11.33;75.31
66670;DHT22;53568;52.164;4.472;2022-12-29T15:12:38;11.38;74.91
66670;DHT22;53568;52.164;4.472;2022-12-29T15:15:26;11.40;74.71
66670;DHT22;53568;52.164;4.472;2022-12-29T15:17:54;11.41;74.28
66670;DHT22;53568;52.164;4.472;2022-12-29T15:20:31;11.46;74.08
66670;DHT22;53568;52.164;4.472;2022-12-29T15:23:08;11.34;74.35
66670;DHT22;53568;52.164;4.472;2022-12-29T15:25:35;11.37;74.03
66670;DHT22;53568;52.164;4.472;2022-12-29T15:28:05;11.44;73.70
66670;DHT22;53568;52.164;4.472;2022-12-29T15:30:32;11.54;73.47
66670;DHT22;53568;52.164;4.472;2022-12-29T15:32:57;11.60;73.33
66670;DHT22;53568;52.164;4.472;2022-12-29T15:35:34;11.54;73.27
66670;DHT22;53568;52.164;4.472;2022-12-29T15:38:13;11.48;73.47
66670;DHT22;53568;52.164;4.472;2022-12-29T15:40:39;11.47;73.48
66670;DHT22;53568;52.164;4.472;2022-12-29T15:45:42;11.47;73.42
66670;DHT22;53568;52.164;4.472;2022-12-29T15:48:18;11.37;73.29
66670;DHT22;53568;52.164;4.472;2022-12-29T15:50:45;11.38;73.25
66670;DHT22;53568;52.164;4.472;2022-12-29T15:53:31;11.33;73.21
66670;DHT22;53568;52.164;4.472;2022-12-29T15:56:10;11.27;73.19
66670;DHT22;53568;52.164;4.472;2022-12-29T15:58:54;11.28;73.30
66670;DHT22;53568;52.164;4.472;2022-12-29T16:03:55;11.17;73.57
66670;DHT22;53568;52.164;4.472;2022-12-29T16:11:38;11.07;73.75
66670;DHT22;53568;52.164;4.472;2022-12-29T16:14:37;11.07;73.80
66670;DHT22;53568;52.164;4.472;2022-12-29T16:17:03;11.10;73.69
66670;DHT22;53568;52.164;4.472;2022-12-29T16:19:33;11.09;73.99
66670;DHT22;53568;52.164;4.472;2022-12-29T16:22:01;11.19;74.46
66670;DHT22;53568;52.164;4.472;2022-12-29T16:24:32;11.10;75.37
66670;DHT22;53568;52.164;4.472;2022-12-29T16:29:35;11.06;76.42
66670;DHT22;53568;52.164;4.472;2022-12-29T16:32:01;11.03;76.33
66670;DHT22;53568;52.164;4.472;2022-12-29T16:34:42;10.89;77.27
66670;DHT22;53568;52.164;4.472;2022-12-29T16:37:33;10.60;77.30
66670;DHT22;53568;52.164;4.472;2022-12-29T16:50:32;10.58;76.90
66670;DHT22;53568;52.164;4.472;2022-12-29T16:52:58;10.59;76.78
66670;DHT22;53568;52.164;4.472;2022-12-29T16:55:24;10.58;76.61
66670;DHT22;53568;52.164;4.472;2022-12-29T16:57:52;10.65;75.90
66670;DHT22;53568;52.164;4.472;2022-12-29T17:00:23;10.59;75.81
66670;DHT22;53568;52.164;4.472;2022-12-29T17:02:54;10.63;75.71
66670;DHT22;53568;52.164;4.472;2022-12-29T17:05:20;10.59;75.10
66670;DHT22;53568;52.164;4.472;2022-12-29T17:07:46;10.60;74.99
66670;DHT22;53568;52.164;4.472;2022-12-29T17:10:12;10.63;74.54
66670;DHT22;53568;52.164;4.472;2022-12-29T17:12:43;10.52;74.88
66670;DHT22;53568;52.164;4.472;2022-12-29T17:17:43;10.48;74.90
66670;DHT22;53568;52.164;4.472;2022-12-29T17:20:24;10.44;74.96
66670;DHT22;53568;52.164;4.472;2022-12-29T17:22:51;10.45;74.83
66670;DHT22;53568;52.164;4.472;2022-12-29T17:25:31;10.45;74.92
66670;DHT22;53568;52.164;4.472;2022-12-29T17:28:12;10.52;74.58
66670;DHT22;53568;52.164;4.472;2022-12-29T17:30:42;10.53;74.31
66670;DHT22;53568;52.164;4.472;2022-12-29T17:33:14;10.62;74.15
66670;DHT22;53568;52.164;4.472;2022-12-29T17:35:40;10.58;74.03
66670;DHT22;53568;52.164;4.472;2022-12-29T17:38:21;10.38;74.32
66670;DHT22;53568;52.164;4.472;2022-12-29T17:40:48;10.38;74.57
66670;DHT22;53568;52.164;4.472;2022-12-29T17:43:15;10.39;74.42
66670;DHT22;53568;52.164;4.472;2022-12-29T17:45:43;10.34;74.51
66670;DHT22;53568;52.164;4.472;2022-12-29T17:48:14;10.31;74.36
66670;DHT22;53568;52.164;4.472;2022-12-29T17:50:41;10.28;74.20
66670;DHT22;53568;52.164;4.472;2022-12-29T17:53:12;10.22;74.50
66670;DHT22;53568;52.164;4.472;2022-12-29T17:55:38;10.32;74.27
66670;DHT22;53568;52.164;4.472;2022-12-29T17:58:16;10.29;73.93
66670;DHT22;53568;52.164;4.472;2022-12-29T18:00:42;10.25;73.99
66670;DHT22;53568;52.164;4.472;2022-12-29T18:03:16;9.97;75.11
66670;DHT22;53568;52.164;4.472;2022-12-29T18:05:42;9.97;75.20
66670;DHT22;53568;52.164;4.472;2022-12-29T18:08:09;9.98;75.26
66670;DHT22;53568;52.164;4.472;2022-12-29T18:10:34;10.01;75.27
66670;DHT22;53568;52.164;4.472;2022-12-29T18:13:00;10.12;75.12
66670;DHT22;53568;52.164;4.472;2022-12-29T18:15:30;10.06;75.24
66670;DHT22;53568;52.164;4.472;2022-12-29T18:18:11;10.11;75.09
66670;DHT22;53568;52.164;4.472;2022-12-29T18:20:38;10.14;74.83
66670;DHT22;53568;52.164;4.472;2022-12-29T18:23:05;10.14;74.93
66670;DHT22;53568;52.164;4.472;2022-12-29T18:25:51;10.19;74.42
66670;DHT22;53568;52.164;4.472;2022-12-29T18:28:17;10.12;74.53